createdAt,value
2023-03-23T15:57:53.385Z,8.20
2023-03-23T16:00:22.493Z,8.00
2023-03-23T16:02:53.665Z,8.10
2023-03-23T16:05:21.092Z,8.10
2023-03-23T16:07:47.763Z,7.70
2023-03-23T16:10:16.923Z,8.50
2023-03-23T16:12:44.984Z,7.50
2023-03-23T16:15:12.861Z,8.80
2023-03-23T16:17:40.975Z,9.00
2023-03-23T16:20:11.197Z,9.00
2023-03-23T16:22:38.093Z,8.90
2023-03-23T16:25:09.577Z,9.60
2023-03-23T16:27:38.779Z,9.30
2023-03-23T16:30:14.393Z,8.70
2023-03-23T16:32:45.166Z,8.60
2023-03-23T16:35:12.689Z,9.20
2023-03-23T16:37:43.294Z,9.00
2023-03-23T16:40:10.693Z,8.40
2023-03-23T16:42:37.391Z,9.50
2023-03-23T16:45:04.433Z,9.30
2023-03-23T16:47:32.433Z,10.80
2023-03-23T16:50:06.099Z,9.80
2023-03-23T16:52:34.162Z,10.00
2023-03-23T16:55:14.772Z,10.80
2023-03-23T16:57:43.496Z,11.50
2023-03-23T17:00:14.738Z,11.10
2023-03-23T17:02:42.518Z,11.40
2023-03-23T17:05:10.527Z,12.30
2023-03-23T17:07:41.006Z,11.80
2023-03-23T17:10:09.023Z,12.00
2023-03-23T17:12:36.179Z,11.30
2023-03-23T17:15:03.469Z,12.20
2023-03-23T17:17:33.495Z,13.60
2023-03-23T17:20:00.473Z,13.60
2023-03-23T17:22:27.390Z,13.30
2023-03-23T17:24:56.831Z,13.70
2023-03-23T17:27:24.324Z,13.10
2023-03-23T17:29:51.149Z,13.30
2023-03-23T17:32:18.230Z,13.60
2023-03-23T17:34:45.374Z,13.30
2023-03-23T17:37:16.216Z,13.20
2023-03-23T17:39:44.482Z,13.40
2023-03-23T17:42:12.077Z,13.30
2023-03-23T17:44:39.358Z,13.60
2023-03-23T17:47:06.418Z,13.40
2023-03-23T17:49:35.126Z,12.80
2023-03-23T17:52:04.082Z,13.20
2023-03-23T17:54:30.758Z,13.60
2023-03-23T17:57:03.233Z,13.40
2023-03-23T17:59:30.316Z,13.90
2023-03-23T18:01:57.629Z,13.50
2023-03-23T18:04:26.402Z,14.00
2023-03-23T18:06:56.823Z,13.50
2023-03-23T18:09:23.904Z,13.70
2023-03-23T18:11:51.345Z,13.40
2023-03-23T18:14:18.189Z,14.90
2023-03-23T18:16:52.711Z,13.60
2023-03-23T18:19:19.605Z,15.00
2023-03-23T18:21:46.292Z,12.90
2023-03-23T18:24:13.491Z,12.60
2023-03-23T18:26:41.585Z,13.10
2023-03-23T18:29:08.163Z,13.20
2023-03-23T18:31:39.410Z,14.90
2023-03-23T18:34:06.301Z,13.50
2023-03-23T18:36:33.509Z,14.60
2023-03-23T18:39:00.220Z,13.70
2023-03-23T18:41:27.041Z,14.20
2023-03-23T18:43:57.433Z,15.20
2023-03-23T18:46:26.940Z,15.10
2023-03-23T18:48:55.058Z,15.00
2023-03-23T18:51:22.199Z,15.20
2023-03-23T18:53:48.945Z,14.80
2023-03-23T18:56:16.732Z,14.80
2023-03-23T18:58:44.811Z,16.30
2023-03-23T19:01:13.870Z,15.50
2023-03-23T19:03:41.160Z,16.10
2023-03-23T19:06:18.268Z,16.80
2023-03-23T19:08:46.332Z,18.10
2023-03-23T19:11:13.205Z,17.40
2023-03-23T19:13:53.753Z,17.10
2023-03-23T19:16:30.492Z,17.30
2023-03-23T19:19:01.187Z,17.10
2023-03-23T19:21:29.961Z,17.00
2023-03-23T19:23:59.163Z,17.60
2023-03-23T19:26:54.866Z,18.00
2023-03-23T19:31:52.717Z,18.10
2023-03-23T19:34:21.221Z,19.60
2023-03-23T19:36:53.699Z,18.60
2023-03-23T19:39:21.775Z,19.30
2023-03-23T19:41:49.862Z,18.60
2023-03-23T19:44:17.904Z,19.00
2023-03-23T19:46:44.862Z,19.00
2023-03-23T19:49:11.668Z,18.90
2023-03-23T19:51:39.763Z,18.20
2023-03-23T19:54:07.398Z,18.40
2023-03-23T19:56:35.541Z,18.70
2023-03-23T19:59:02.539Z,18.50
2023-03-23T20:01:29.203Z,17.90
2023-03-23T20:04:04.532Z,19.20
2023-03-23T20:06:33.214Z,17.40
2023-03-23T20:09:01.273Z,19.20
2023-03-23T20:11:28.607Z,18.50
2023-03-23T20:13:55.753Z,18.40
2023-03-23T20:16:22.669Z,18.30
2023-03-23T20:18:50.295Z,17.80
2023-03-23T20:21:22.514Z,19.30
2023-03-23T20:23:55.240Z,19.80
2023-03-23T20:26:29.323Z,19.00
2023-03-23T20:28:56.467Z,19.20
2023-03-23T20:31:28.003Z,18.40
2023-03-23T20:34:01.690Z,19.90
2023-03-23T20:36:33.967Z,19.90
2023-03-23T20:39:09.884Z,19.50
2023-03-23T20:41:37.886Z,19.20
2023-03-23T20:44:05.322Z,20.60
2023-03-23T20:46:34.202Z,19.40
2023-03-23T20:49:01.312Z,19.30
2023-03-23T20:51:29.766Z,20.90
2023-03-23T20:53:57.538Z,20.80
2023-03-23T20:56:25.023Z,20.00
2023-03-23T20:58:51.667Z,20.00
2023-03-23T21:01:20.972Z,20.50
2023-03-23T21:03:51.447Z,20.80
2023-03-23T21:06:18.708Z,19.10
2023-03-23T21:08:46.120Z,19.70
2023-03-23T21:11:20.278Z,19.20
2023-03-23T21:13:47.951Z,18.30
2023-03-23T21:16:15.338Z,18.70
2023-03-23T21:18:42.236Z,18.50
2023-03-23T21:21:14.258Z,17.90
2023-03-23T21:23:45.938Z,19.20
2023-03-23T21:26:16.017Z,18.10
2023-03-23T21:28:44.205Z,18.60
2023-03-23T21:31:11.808Z,17.60
2023-03-23T21:33:40.770Z,17.30
2023-03-23T21:36:08.558Z,18.20
2023-03-23T21:38:35.244Z,17.40
2023-03-23T21:41:09.575Z,17.60
2023-03-23T21:43:39.126Z,16.50
2023-03-23T21:46:13.488Z,17.80
2023-03-23T21:48:41.559Z,16.90
2023-03-23T21:51:13.596Z,16.60
2023-03-23T21:53:41.576Z,14.50
2023-03-23T21:56:09.626Z,16.30
2023-03-23T21:58:36.516Z,16.30
2023-03-23T22:01:04.667Z,16.10
2023-03-23T22:03:34.120Z,15.30
2023-03-23T22:06:11.096Z,16.20
2023-03-23T22:08:39.897Z,15.50
2023-03-23T22:11:37.940Z,14.80
2023-03-23T22:14:05.220Z,15.60
2023-03-23T22:16:32.676Z,15.10
2023-03-23T22:19:01.623Z,15.40
2023-03-23T22:21:28.580Z,15.20
2023-03-23T22:23:57.699Z,15.30
2023-03-23T22:26:26.628Z,13.70
2023-03-23T22:28:59.444Z,15.20
2023-03-23T22:31:29.596Z,13.80
2023-03-23T22:33:56.469Z,14.90
2023-03-23T22:36:24.092Z,13.80
2023-03-23T22:38:51.420Z,13.60
2023-03-23T22:41:24.441Z,13.80
2023-03-23T22:43:51.385Z,14.30
2023-03-23T22:46:18.290Z,13.80
2023-03-23T22:48:47.026Z,13.10
2023-03-23T22:51:15.165Z,13.20
2023-03-23T22:53:42.328Z,13.30
2023-03-23T22:56:09.835Z,12.20
2023-03-23T22:58:37.896Z,12.50
2023-03-23T23:01:12.409Z,12.30
2023-03-23T23:03:40.496Z,11.90
2023-03-23T23:06:07.900Z,11.30
2023-03-23T23:08:34.696Z,11.20
2023-03-23T23:11:01.932Z,11.00
2023-03-23T23:13:28.923Z,11.80
2023-03-23T23:15:57.815Z,12.30
2023-03-23T23:18:25.490Z,11.50
2023-03-23T23:20:56.701Z,11.40
2023-03-23T23:23:24.290Z,11.50
2023-03-23T23:25:51.749Z,11.40
2023-03-23T23:28:20.014Z,12.40
2023-03-23T23:30:47.652Z,13.00
2023-03-23T23:33:15.554Z,12.30
2023-03-23T23:35:42.727Z,11.90
2023-03-23T23:38:11.904Z,12.50
2023-03-23T23:40:40.463Z,13.10
2023-03-23T23:43:15.739Z,12.00
2023-03-23T23:45:43.364Z,12.30
2023-03-23T23:48:10.730Z,12.90
2023-03-23T23:50:38.350Z,12.30
2023-03-23T23:53:04.995Z,12.10
2023-03-23T23:55:33.615Z,12.20
2023-03-23T23:58:00.379Z,11.60
